Wardville, Louisiana
Current Conditions -  °F | °C
As of 1:15 PM on Friday 24 Oct 2014 (Local Time) from KBQP Reporting Station
Clear Clear  
Wind Chill: 71°   Ceiling: Unl
Heat Index: 71°   Visibility: 10mi
Dew Point: 46°   Wind: 5mph
Humidity: 41%   Direction: 310°NW
Pressure: 30.14"   Gusts: NA
Location:  32.8721°N, 91.912°W
Report Text: KBQP 241815Z AUTO 31004KT 10SM CLR 22/08 A3014 RMK AO2 T02150076
Loading
Personal Weather Stations






























Interactive Weather Map
Tropical Storm Tracking
New forecast layout! Learn more

10-Day Weather Forecast

Advertisements
Track Severe Weather on mobile